Decoded Metar for KCBE (CUMBERLAND REG in MD, USA) (IATA:CBE) | Meteo·Mobile Aviation Weather
aviador You're here:

KCBE Decoded Metar

CUMBERLAND REG in MD, USA
Report Time2019-10-22 13:35:00
UTC Time2019-10-22 14:05:40
Flight Rules mvfr MVFR
Wind180° at 03 kt
W.Decomp.*RWY 23: 2.3 kt HW 1.9 kt LCW
RWY 11: 0.5 kt HW 3.0 kt RCW
Visibility9999 m
Phenomena:N/A
Clouds:Overcast 014 Hf
Expected CloudBase > 1,200 ft AGL from Temp-Dew spread
Ceiling1,400 ft
Temp15°C (ISA +2)
Dew Point12°C (82% RH)
AAT14.5°C
QNH1013 hPa
Density Alt1,148 ft
Elevation774 ft
Report Wrong Elevation
Raw Report
KCBE 221335Z AUTO 18003KT 10SM OVC014 15/12 A2992 RMK AO2
T01470123=

Extra information for KCBE:More info

Metar Taf Metar & Taf Last 4 Metars F.Rules Stats Wind Profile Meteogram Temp Stats Airport Information Weather charts Add Link Nearby VenuesMetar ALERT Operation Metar Decoded Social comments

AIRNAV info for KCBE